Turks and Caicos Islands Weather

[source: ADDS]
METAR
MBPV 231500Z 2318/2418 VRB05KT 9999 SCT018 MBGT 231500Z 2318/2418 VRB05KT 9999 SCT018 TAF
MBPV 231500Z 2318/2418 VRB05KT 9999 SCT018 =
MBGT 231500Z 2318/2418 VRB05KT 9999 SCT018 =
SR / SS: 10:22 / 23:12 UTC (MBPV 2014-04-23)
E-mail Print PDF
Weather